Time;durP1;ratioP1;P1;durP2;ratioP2;P2;SDS_P1;SDS_P2;PMS_P1;PMS_P2;Temp;Humidity;BMP_temperature;BMP_pressure;BME280_temperature;BME280_humidity;BME280_pressure;Samples;Min_cycle;Max_cycle;Signal;HPM_P1;HPM_P2
2023/01/13 00:00:46;;;;;;;6.50;1.83;;;19.30;67.40;;;;;;4531200;31;20131;-66
2023/01/13 00:03:12;;;;;;;8.57;2.05;;;19.30;67.40;;;;;;4517696;31;20158;-66
2023/01/13 00:05:38;;;;;;;6.40;2.17;;;19.30;67.40;;;;;;4516174;31;20124;-66
2023/01/13 00:08:05;;;;;;;7.50;2.33;;;19.20;67.30;;;;;;4517783;31;20116;-66
2023/01/13 00:10:34;;;;;;;7.25;2.28;;;19.20;67.30;;;;;;4530033;31;20188;-66
2023/01/13 00:13:02;;;;;;;6.32;2.10;;;19.20;67.30;;;;;;4516899;31;20270;-67
2023/01/13 00:15:27;;;;;;;7.28;2.20;;;19.20;67.30;;;;;;4516749;31;20142;-66
2023/01/13 00:17:53;;;;;;;7.50;2.10;;;19.20;67.40;;;;;;4530892;31;20123;-66
2023/01/13 00:20:19;;;;;;;8.68;2.58;;;19.20;67.40;;;;;;4531816;31;20080;-66
2023/01/13 00:22:45;;;;;;;9.00;2.40;;;19.20;67.40;;;;;;4530428;31;20426;-66
2023/01/13 00:25:11;;;;;;;6.85;2.20;;;19.20;67.40;;;;;;4530647;31;20157;-66
2023/01/13 00:27:37;;;;;;;5.65;1.92;;;19.10;67.30;;;;;;4530360;31;20144;-66
2023/01/13 00:30:04;;;;;;;8.80;2.20;;;19.10;67.40;;;;;;4517080;31;20123;-66
2023/01/13 00:32:30;;;;;;;6.28;2.05;;;19.10;67.40;;;;;;4516515;31;20146;-66
2023/01/13 00:34:57;;;;;;;8.07;2.15;;;19.10;67.40;;;;;;4529811;31;20136;-66
2023/01/13 00:37:23;;;;;;;5.80;1.77;;;19.10;67.30;;;;;;4531658;31;20085;-66
2023/01/13 00:39:50;;;;;;;7.55;2.50;;;19.10;67.30;;;;;;4529915;31;20185;-66
2023/01/13 00:45:01;;;;;;;10.20;2.28;;;19.10;67.30;;;;;;4529374;31;20765;-66
2023/01/13 00:47:27;;;;;;;7.65;2.35;;;19.10;67.40;;;;;;4530025;31;20120;-66
2023/01/13 00:49:54;;;;;;;6.68;2.10;;;19.00;67.30;;;;;;4531161;31;20165;-66
2023/01/13 00:52:20;;;;;;;8.38;2.20;;;19.00;67.30;;;;;;4528850;31;20461;-66
2023/01/13 00:54:45;;;;;;;7.68;2.60;;;19.00;67.20;;;;;;4517015;31;20128;-66
2023/01/13 00:57:11;;;;;;;6.32;2.03;;;19.00;67.30;;;;;;4529755;31;20292;-66
2023/01/13 00:59:37;;;;;;;6.57;1.98;;;19.00;67.30;;;;;;4530275;31;20104;-66
2023/01/13 01:02:03;;;;;;;6.30;2.00;;;19.00;67.30;;;;;;4528680;31;20143;-66
2023/01/13 01:04:30;;;;;;;7.97;1.95;;;19.00;67.30;;;;;;4529800;31;20115;-66
2023/01/13 01:06:55;;;;;;;5.07;1.92;;;19.00;67.30;;;;;;4530470;31;20194;-66
2023/01/13 01:09:21;;;;;;;6.15;1.60;;;19.00;67.30;;;;;;4528774;31;20261;-66
2023/01/13 01:11:47;;;;;;;8.43;2.50;;;18.90;67.30;;;;;;4530836;31;20177;-67
2023/01/13 01:14:13;;;;;;;6.18;2.30;;;18.90;67.40;;;;;;4529537;31;20127;-67
2023/01/13 01:16:41;;;;;;;6.63;2.47;;;18.90;67.40;;;;;;4529723;31;20131;-67
2023/01/13 01:19:07;;;;;;;8.32;2.10;;;18.90;67.40;;;;;;4529688;31;20140;-66
2023/01/13 01:21:33;;;;;;;7.68;2.10;;;18.90;67.40;;;;;;4530557;31;20128;-66
2023/01/13 01:24:02;;;;;;;6.68;2.10;;;18.90;67.40;;;;;;4530052;31;20136;-66
2023/01/13 01:26:28;;;;;;;6.05;2.10;;;18.90;67.40;;;;;;4529902;31;20140;-66
2023/01/13 01:28:54;;;;;;;7.13;2.10;;;18.90;67.50;;;;;;4530779;31;20175;-66
2023/01/13 01:31:24;;;;;;;5.25;1.98;;;18.90;67.50;;;;;;4528167;31;20136;-66
2023/01/13 01:33:50;;;;;;;8.43;2.25;;;18.90;67.50;;;;;;4516363;31;20143;-66
2023/01/13 01:36:18;;;;;;;6.00;2.10;;;18.80;67.50;;;;;;4528325;31;20556;-66
2023/01/13 01:38:44;;;;;;;9.68;2.13;;;18.80;67.50;;;;;;4515978;31;20128;-66
2023/01/13 01:41:16;;;;;;;6.13;1.70;;;18.80;67.50;;;;;;4528795;31;20120;-66
2023/01/13 01:44:27;;;;;;;6.97;1.85;;;18.80;67.50;;;;;;4529301;31;20240;-66
2023/01/13 01:46:54;;;;;;;6.28;2.15;;;18.80;67.50;;;;;;4530248;31;20160;-67
2023/01/13 01:49:32;;;;;;;7.90;2.20;;;18.80;67.60;;;;;;4529309;31;20600;-66
2023/01/13 01:52:12;;;;;;;9.43;2.60;;;18.80;67.60;;;;;;4529914;31;20116;-66
2023/01/13 01:54:56;;;;;;;7.93;2.45;;;18.80;67.50;;;;;;4529394;31;20140;-66
2023/01/13 01:57:42;;;;;;;5.65;1.70;;;18.80;67.60;;;;;;4528739;31;20143;-66
2023/01/13 02:00:09;;;;;;;7.80;2.25;;;18.70;67.60;;;;;;4530143;31;20207;-66
2023/01/13 02:02:36;;;;;;;5.45;1.90;;;18.70;67.60;;;;;;4515225;31;20138;-67
2023/01/13 02:05:02;;;;;;;8.13;1.95;;;18.70;67.60;;;;;;4529392;31;20144;-68
2023/01/13 02:07:31;;;;;;;7.40;1.80;;;18.70;67.60;;;;;;4530194;31;20186;-66
2023/01/13 02:10:00;;;;;;;6.47;1.95;;;18.70;67.50;;;;;;4528341;31;20540;-67
2023/01/13 02:12:33;;;;;;;8.77;2.10;;;18.70;67.60;;;;;;4530164;31;20116;-67
2023/01/13 02:15:07;;;;;;;7.10;2.37;;;18.70;67.60;;;;;;4514122;31;20162;-66
2023/01/13 02:17:45;;;;;;;6.00;2.13;;;18.70;67.60;;;;;;4529879;31;20127;-67
2023/01/13 02:20:38;;;;;;;4.47;1.27;;;18.60;67.50;;;;;;4515571;31;20088;-66
2023/01/13 02:26:43;;;;;;;4.45;1.65;;;18.60;67.50;;;;;;4529718;31;20147;-66
2023/01/13 02:32:29;;;;;;;5.72;1.92;;;18.60;67.60;;;;;;4528965;31;20187;-66
2023/01/13 02:35:12;;;;;;;5.82;1.83;;;18.60;67.60;;;;;;4514529;31;20134;-66
2023/01/13 02:37:41;;;;;;;7.68;2.25;;;18.60;67.60;;;;;;4529911;31;20115;-66
2023/01/13 02:40:10;;;;;;;5.32;1.75;;;18.60;67.60;;;;;;4527407;31;20258;-66
2023/01/13 02:45:35;;;;;;;7.05;2.10;;;18.60;67.60;;;;;;4529271;31;20786;-66
2023/01/13 02:48:04;;;;;;;5.07;1.92;;;18.60;67.60;;;;;;4528750;31;20139;-66
2023/01/13 02:50:49;;;;;;;5.85;1.88;;;18.60;67.60;;;;;;4529992;31;20644;-66
2023/01/13 02:53:29;;;;;;;6.22;1.95;;;18.50;67.50;;;;;;4528355;31;20123;-66
2023/01/13 02:55:58;;;;;;;7.53;2.20;;;18.50;67.60;;;;;;4529626;31;20120;-66
2023/01/13 02:58:28;;;;;;;8.63;2.05;;;18.50;67.60;;;;;;4529366;31;20131;-66
2023/01/13 03:00:54;;;;;;;7.10;2.13;;;18.50;67.60;;;;;;4514225;31;20167;-66
2023/01/13 03:03:20;;;;;;;6.95;2.08;;;18.50;67.60;;;;;;4529797;31;20504;-66
2023/01/13 03:05:49;;;;;;;5.85;1.80;;;18.50;67.60;;;;;;4527975;31;20608;-66
2023/01/13 03:08:26;;;;;;;6.88;2.10;;;18.50;67.60;;;;;;4529849;31;20728;-66
2023/01/13 03:11:11;;;;;;;7.63;2.13;;;18.50;67.60;;;;;;4504016;31;20658;-66
2023/01/13 03:13:58;;;;;;;6.78;2.20;;;18.50;67.40;;;;;;4528371;31;20187;-66
2023/01/13 03:16:49;;;;;;;7.40;2.25;;;18.50;67.50;;;;;;4529636;31;20176;-66
2023/01/13 03:19:41;;;;;;;4.32;1.90;;;18.40;67.50;;;;;;4528282;31;20193;-65
2023/01/13 03:22:21;;;;;;;6.50;2.33;;;18.40;67.40;;;;;;4528796;31;20197;-66
2023/01/13 03:24:59;;;;;;;7.32;2.05;;;18.40;67.50;;;;;;4528695;31;20158;-67
2023/01/13 03:27:32;;;;;;;9.45;2.22;;;18.40;67.50;;;;;;4528101;31;20188;-66
2023/01/13 03:30:31;;;;;;;5.68;1.90;;;18.40;67.60;;;;;;4515219;31;20152;-67
2023/01/13 03:33:20;;;;;;;5.90;2.10;;;18.40;67.40;;;;;;4504276;31;20509;-66
2023/01/13 03:35:51;;;;;;;7.10;2.10;;;18.40;67.50;;;;;;4527918;31;20166;-66
2023/01/13 03:38:19;;;;;;;5.72;2.00;;;18.40;67.50;;;;;;4529687;31;20127;-66
2023/01/13 03:40:51;;;;;;;6.07;1.85;;;18.40;67.50;;;;;;4527980;31;20136;-66
2023/01/13 03:46:17;;;;;;;6.28;1.80;;;18.40;67.40;;;;;;4529453;31;20139;-66
2023/01/13 03:48:45;;;;;;;5.18;1.98;;;18.40;67.40;;;;;;4529712;31;20132;-66
2023/01/13 03:51:15;;;;;;;7.57;2.17;;;18.40;67.40;;;;;;4532226;31;20144;-66
2023/01/13 03:53:50;;;;;;;5.93;2.00;;;18.40;67.40;;;;;;4531174;31;20128;-66
2023/01/13 03:56:29;;;;;;;7.32;2.00;;;18.40;67.40;;;;;;4531561;31;20146;-66
2023/01/13 03:58:58;;;;;;;7.28;2.13;;;18.40;67.30;;;;;;4517875;31;20628;-66
2023/01/13 04:01:45;;;;;;;4.70;1.67;;;18.40;67.30;;;;;;4516174;31;20620;-66
2023/01/13 04:04:39;;;;;;;7.15;1.90;;;18.40;67.20;;;;;;4532197;31;20124;-66
2023/01/13 04:07:14;;;;;;;6.43;2.05;;;18.40;67.20;;;;;;4521277;31;20138;-66
2023/01/13 04:09:47;;;;;;;6.45;2.10;;;18.40;67.20;;;;;;4530449;31;20154;-66
2023/01/13 04:15:22;;;;;;;7.45;2.00;;;18.30;67.10;;;;;;4530791;31;20487;-65
2023/01/13 04:17:48;;;;;;;7.63;2.50;;;18.30;67.10;;;;;;4530035;31;20465;-66
2023/01/13 04:20:14;;;;;;;7.55;2.10;;;18.30;67.90;;;;;;4531696;31;20638;-66
2023/01/13 04:22:40;;;;;;;7.15;2.22;;;18.30;67.10;;;;;;4529325;31;20151;-66
2023/01/13 04:25:06;;;;;;;8.25;2.35;;;18.30;68.00;;;;;;4531690;31;20485;-66
2023/01/13 04:27:32;;;;;;;6.63;2.00;;;18.30;67.00;;;;;;4515966;31;20124;-66
2023/01/13 04:29:58;;;;;;;5.80;1.90;;;18.30;67.00;;;;;;4517318;31;20583;-66
2023/01/13 04:32:24;;;;;;;8.05;2.45;;;18.30;67.10;;;;;;4529466;31;20561;-66
2023/01/13 04:34:50;;;;;;;8.43;2.63;;;18.30;67.10;;;;;;4529990;31;20154;-66
2023/01/13 04:37:15;;;;;;;10.30;2.60;;;18.30;67.00;;;;;;4531462;31;20080;-66
2023/01/13 04:39:41;;;;;;;9.32;2.20;;;18.30;67.00;;;;;;4529939;31;20260;-66
2023/01/13 04:42:07;;;;;;;7.22;2.13;;;18.30;67.10;;;;;;4530425;31;20120;-66
2023/01/13 04:44:34;;;;;;;6.13;2.25;;;18.20;67.00;;;;;;4515645;31;20140;-66
2023/01/13 04:47:03;;;;;;;5.20;1.95;;;18.20;66.90;;;;;;4531486;31;20255;-66
2023/01/13 04:49:29;;;;;;;7.15;2.03;;;18.20;66.90;;;;;;4515939;31;20178;-66
2023/01/13 04:51:55;;;;;;;7.45;2.20;;;18.20;67.80;;;;;;4530777;31;20313;-66
2023/01/13 04:54:22;;;;;;;7.97;2.20;;;18.20;67.00;;;;;;4531193;31;20080;-66
2023/01/13 04:56:47;;;;;;;6.95;2.40;;;18.20;67.00;;;;;;4515346;31;20130;-66
2023/01/13 04:59:13;;;;;;;7.45;2.30;;;18.20;67.00;;;;;;4530048;31;20120;-66
2023/01/13 05:01:40;;;;;;;6.20;2.35;;;18.20;66.90;;;;;;4515194;31;20128;-66
2023/01/13 05:04:07;;;;;;;6.80;2.50;;;18.20;66.90;;;;;;4531452;31;20557;-66
2023/01/13 05:06:33;;;;;;;9.82;2.38;;;18.20;66.90;;;;;;4529971;31;20191;-66
2023/01/13 05:08:59;;;;;;;7.47;2.13;;;18.20;66.90;;;;;;4516304;31;20155;-66
2023/01/13 05:17:02;;;;;;;8.35;2.15;;;18.10;66.90;;;;;;4530787;31;20232;-66
2023/01/13 05:19:29;;;;;;;7.38;2.30;;;18.20;66.90;;;;;;4515693;31;20715;-66
2023/01/13 05:27:25;;;;;;;7.82;2.65;;;18.10;66.80;;;;;;4529189;31;20175;-66
2023/01/13 05:29:51;;;;;;;9.15;2.65;;;18.10;66.80;;;;;;4530882;31;20134;-66
2023/01/13 05:32:17;;;;;;;5.32;1.95;;;18.10;66.80;;;;;;4529421;31;20154;-66
2023/01/13 05:34:42;;;;;;;6.75;2.25;;;18.10;66.80;;;;;;4530337;31;20452;-66
2023/01/13 05:37:09;;;;;;;7.78;2.33;;;18.10;66.80;;;;;;4530398;31;20417;-66
2023/01/13 05:45:05;;;;;;;8.43;2.45;;;18.10;66.90;;;;;;4529441;31;20140;-66
2023/01/13 05:47:31;;;;;;;8.50;2.58;;;18.10;66.90;;;;;;4530101;31;20619;-66
2023/01/13 05:49:57;;;;;;;7.63;2.50;;;18.00;66.80;;;;;;4529185;31;20116;-66
2023/01/13 05:52:23;;;;;;;6.95;2.60;;;18.00;66.70;;;;;;4529076;31;20654;-66
2023/01/13 05:54:49;;;;;;;8.82;2.17;;;18.00;66.70;;;;;;4529245;31;20609;-66
2023/01/13 05:57:16;;;;;;;8.48;2.22;;;18.00;66.80;;;;;;4528795;31;20126;-66
2023/01/13 05:59:42;;;;;;;9.63;2.83;;;18.00;66.70;;;;;;4530193;31;20147;-66
2023/01/13 06:02:08;;;;;;;8.05;2.50;;;18.00;66.70;;;;;;4514991;31;20127;-66
2023/01/13 06:04:33;;;;;;;7.28;2.47;;;18.00;66.70;;;;;;4515688;31;20167;-66
2023/01/13 06:06:59;;;;;;;7.22;2.10;;;18.00;66.70;;;;;;4515715;31;20084;-66
2023/01/13 06:09:25;;;;;;;8.55;2.70;;;18.00;66.70;;;;;;4527925;31;20128;-66
2023/01/13 06:11:51;;;;;;;8.25;2.25;;;18.00;66.70;;;;;;4528882;31;20186;-66
2023/01/13 06:14:19;;;;;;;7.65;2.25;;;18.00;66.70;;;;;;4527708;31;20269;-66
2023/01/13 06:16:45;;;;;;;5.97;2.13;;;18.00;66.60;;;;;;4529931;31;20176;-66
2023/01/13 06:19:12;;;;;;;7.45;2.45;;;18.00;66.70;;;;;;4529134;31;20108;-66
2023/01/13 06:21:38;;;;;;;7.85;2.33;;;18.00;66.60;;;;;;4529637;31;20132;-66
2023/01/13 06:24:05;;;;;;;9.10;2.67;;;18.00;66.60;;;;;;4529920;31;20444;-66
2023/01/13 06:26:36;;;;;;;7.88;2.53;;;17.90;66.50;;;;;;4528846;31;20198;-66
2023/01/13 06:29:02;;;;;;;8.45;2.30;;;17.90;66.60;;;;;;4529927;31;20216;-67
2023/01/13 06:31:28;;;;;;;7.70;2.70;;;17.90;66.60;;;;;;4528531;31;20104;-67
2023/01/13 06:34:01;;;;;;;9.18;2.35;;;17.90;66.60;;;;;;4529898;31;20123;-66
2023/01/13 06:36:37;;;;;;;5.68;2.00;;;17.90;66.50;;;;;;4528927;31;20120;-68
2023/01/13 06:39:03;;;;;;;9.63;2.53;;;17.90;66.50;;;;;;4529213;31;20124;-67
2023/01/13 06:44:18;;;;;;;9.23;2.45;;;17.90;66.50;;;;;;4528207;31;20235;-67
2023/01/13 06:46:44;;;;;;;7.28;2.40;;;17.90;66.50;;;;;;4529861;31;20194;-66
2023/01/13 06:49:10;;;;;;;7.70;2.45;;;17.90;66.50;;;;;;4527714;31;20128;-66
2023/01/13 06:51:36;;;;;;;9.18;2.58;;;17.80;66.40;;;;;;4515244;31;20119;-66
2023/01/13 06:54:02;;;;;;;8.05;2.30;;;17.80;66.40;;;;;;4528355;31;20134;-67
2023/01/13 06:56:29;;;;;;;8.80;2.70;;;17.80;66.40;;;;;;4528390;31;20582;-66
2023/01/13 06:58:55;;;;;;;6.28;2.10;;;17.80;66.40;;;;;;4529815;31;20128;-66
2023/01/13 07:01:20;;;;;;;6.25;2.47;;;17.80;66.40;;;;;;4528164;31;20143;-67
2023/01/13 07:03:46;;;;;;;8.40;2.42;;;17.80;66.40;;;;;;4528854;31;20519;-67
2023/01/13 07:06:12;;;;;;;8.23;2.53;;;17.80;66.40;;;;;;4528499;31;20116;-66
2023/01/13 07:08:38;;;;;;;6.85;2.10;;;17.80;66.40;;;;;;4529399;31;20124;-67
2023/01/13 07:11:04;;;;;;;6.22;2.22;;;17.80;66.40;;;;;;4529093;31;20123;-67
2023/01/13 07:16:14;;;;;;;8.82;2.47;;;17.80;66.40;;;;;;4529603;31;20139;-67
2023/01/13 07:18:40;;;;;;;8.98;2.78;;;17.80;66.40;;;;;;4527962;31;20213;-67
2023/01/13 07:21:08;;;;;;;9.65;2.40;;;17.80;66.40;;;;;;4531190;31;20132;-66
2023/01/13 07:23:37;;;;;;;6.75;2.03;;;17.70;66.30;;;;;;4517182;31;20241;-66
2023/01/13 07:26:04;;;;;;;9.32;2.47;;;17.80;66.40;;;;;;4532383;31;20132;-68
2023/01/13 07:28:31;;;;;;;7.90;2.30;;;17.70;66.40;;;;;;4532417;31;20107;-66
2023/01/13 07:30:57;;;;;;;9.07;3.13;;;17.70;66.30;;;;;;4531279;31;20155;-67
2023/01/13 07:33:23;;;;;;;7.05;2.50;;;17.70;67.20;;;;;;4532548;31;20143;-67
2023/01/13 07:35:57;;;;;;;6.50;2.45;;;17.70;66.30;;;;;;4531028;31;20142;-67
2023/01/13 07:38:23;;;;;;;7.70;2.33;;;17.70;66.30;;;;;;4532498;31;20127;-67
2023/01/13 07:40:49;;;;;;;7.40;2.40;;;17.70;66.40;;;;;;4530252;31;20127;-66
2023/01/13 07:43:30;;;;;;;10.45;2.60;;;17.70;66.40;;;;;;4532002;31;20123;-66
2023/01/13 07:46:04;;;;;;;8.38;2.55;;;17.60;66.40;;;;;;4532221;31;20367;-66
2023/01/13 07:48:32;;;;;;;10.32;2.42;;;17.60;66.30;;;;;;4516350;31;20128;-66
2023/01/13 07:51:06;;;;;;;9.25;2.20;;;17.70;66.40;;;;;;4532423;31;20143;-66
2023/01/13 07:53:32;;;;;;;7.35;2.03;;;17.60;66.30;;;;;;4520777;31;20132;-66
2023/01/13 07:55:59;;;;;;;9.82;2.10;;;17.60;66.40;;;;;;4517578;31;20136;-67
2023/01/13 07:58:27;;;;;;;6.38;2.40;;;17.60;66.40;;;;;;4530834;31;20499;-67
2023/01/13 08:00:53;;;;;;;8.88;2.13;;;17.60;66.30;;;;;;4516470;31;20595;-66
2023/01/13 08:03:19;;;;;;;8.35;2.13;;;17.60;66.30;;;;;;4517760;31;20140;-67
2023/01/13 08:05:45;;;;;;;7.35;2.50;;;17.60;66.30;;;;;;4530667;31;20257;-67
2023/01/13 08:08:11;;;;;;;10.40;2.20;;;17.60;66.10;;;;;;4517668;31;20177;-67
2023/01/13 08:10:37;;;;;;;10.73;2.95;;;17.60;66.00;;;;;;4530725;31;20143;-66
2023/01/13 08:13:18;;;;;;;10.18;2.85;;;17.60;65.80;;;;;;4530518;31;20128;-67
2023/01/13 08:15:46;;;;;;;8.55;2.03;;;17.60;65.80;;;;;;4507834;31;20170;-66
2023/01/13 08:18:13;;;;;;;6.22;2.38;;;17.70;65.80;;;;;;4530481;31;20645;-66
2023/01/13 08:20:39;;;;;;;8.05;2.40;;;17.70;65.60;;;;;;4532035;31;20131;-66
2023/01/13 08:23:05;;;;;;;8.63;2.35;;;17.80;65.40;;;;;;4530420;31;20181;-66
2023/01/13 08:25:31;;;;;;;6.45;2.58;;;17.90;65.20;;;;;;4517304;31;20205;-66
2023/01/13 08:27:59;;;;;;;9.88;2.17;;;18.00;64.90;;;;;;4530696;31;20189;-66
2023/01/13 08:30:26;;;;;;;8.27;2.30;;;18.20;65.20;;;;;;4516605;31;20143;-66
2023/01/13 08:32:52;;;;;;;6.97;2.10;;;18.30;64.20;;;;;;4529834;31;20094;-66
2023/01/13 08:35:18;;;;;;;5.72;1.95;;;18.50;63.80;;;;;;4530145;31;20135;-66
2023/01/13 08:37:45;;;;;;;5.68;1.92;;;18.60;63.40;;;;;;4517491;31;20144;-66
2023/01/13 08:40:12;;;;;;;7.72;2.20;;;18.70;63.00;;;;;;4529780;31;20115;-66
2023/01/13 08:42:38;;;;;;;7.85;2.15;;;18.90;62.70;;;;;;4517214;31;20131;-66
2023/01/13 08:45:05;;;;;;;6.00;1.80;;;19.00;62.30;;;;;;4530348;31;20116;-66
2023/01/13 08:47:31;;;;;;;5.78;2.08;;;19.20;62.00;;;;;;4516237;31;20189;-66
2023/01/13 08:49:57;;;;;;;7.45;1.85;;;19.30;61.70;;;;;;4516988;31;20072;-66
2023/01/13 08:52:23;;;;;;;6.30;1.90;;;19.40;61.50;;;;;;4529974;31;20131;-66
2023/01/13 08:54:49;;;;;;;9.63;2.20;;;19.40;61.30;;;;;;4530146;31;20116;-66
2023/01/13 08:57:15;;;;;;;5.28;1.77;;;19.40;61.00;;;;;;4529887;31;20131;-65
2023/01/13 08:59:42;;;;;;;8.25;2.17;;;19.50;61.10;;;;;;4531150;31;20136;-65
2023/01/13 09:02:13;;;;;;;7.97;2.40;;;19.50;61.00;;;;;;4530215;31;20127;-65
2023/01/13 09:04:39;;;;;;;6.50;1.95;;;19.50;60.90;;;;;;4529552;31;20115;-65
2023/01/13 09:07:05;;;;;;;8.35;2.30;;;19.50;60.90;;;;;;4531375;31;20088;-65
2023/01/13 09:09:30;;;;;;;7.03;2.35;;;19.60;60.90;;;;;;4529696;31;20138;-65
2023/01/13 09:14:41;;;;;;;8.85;1.95;;;19.50;60.80;;;;;;4529717;31;20163;-66
2023/01/13 09:17:07;;;;;;;6.53;2.13;;;19.60;60.80;;;;;;4529378;31;20253;-66
2023/01/13 09:19:33;;;;;;;6.85;2.03;;;19.60;60.80;;;;;;4530383;31;20116;-66
2023/01/13 09:21:58;;;;;;;6.97;2.20;;;19.60;60.70;;;;;;4529939;31;20712;-66
2023/01/13 09:24:25;;;;;;;7.70;2.42;;;19.60;60.70;;;;;;4530855;31;20128;-65
2023/01/13 09:26:51;;;;;;;8.40;2.08;;;19.60;60.60;;;;;;4528279;31;20266;-66
2023/01/13 09:29:17;;;;;;;8.23;2.03;;;19.60;60.60;;;;;;4530856;31;20135;-66
2023/01/13 09:31:44;;;;;;;7.28;2.40;;;19.60;60.60;;;;;;4529393;31;20100;-66
2023/01/13 09:36:58;;;;;;;6.18;2.20;;;19.60;60.50;;;;;;4530550;31;20161;-66
2023/01/13 09:39:25;;;;;;;7.47;2.30;;;19.60;60.40;;;;;;4528214;31;20213;-66
2023/01/13 09:44:57;;;;;;;5.68;2.00;;;19.60;60.30;;;;;;4529174;31;20208;-66
2023/01/13 09:47:51;;;;;;;7.07;2.33;;;19.60;60.30;;;;;;4530214;31;20124;-66
2023/01/13 09:50:24;;;;;;;7.80;2.30;;;19.60;60.30;;;;;;4501290;31;20159;-67
2023/01/13 09:52:51;;;;;;;6.82;2.22;;;19.70;60.40;;;;;;4520253;31;20139;-66
2023/01/13 09:55:18;;;;;;;6.75;2.25;;;19.60;60.30;;;;;;4524063;31;20164;-66
2023/01/13 09:57:44;;;;;;;5.68;2.10;;;19.60;60.20;;;;;;4514795;31;20489;-66
2023/01/13 10:00:16;;;;;;;7.38;2.47;;;19.70;60.10;;;;;;4515458;31;20863;-66
2023/01/13 10:03:07;;;;;;;7.47;2.38;;;19.70;60.00;;;;;;4526513;31;20199;-66
2023/01/13 10:05:39;;;;;;;8.68;2.40;;;19.70;60.00;;;;;;4524988;31;20136;-66
2023/01/13 10:08:19;;;;;;;9.23;2.05;;;19.70;59.90;;;;;;4525775;31;20160;-66
2023/01/13 10:10:49;;;;;;;7.68;2.40;;;19.70;60.00;;;;;;4523873;31;20140;-67
2023/01/13 10:13:22;;;;;;;11.23;2.30;;;19.70;60.00;;;;;;4524610;31;20132;-67
2023/01/13 10:15:54;;;;;;;;;;;19.70;60.20;;;;;;4525177;31;20116;-68
2023/01/13 10:18:41;;;;;;;11.32;2.55;;;19.70;60.40;;;;;;4523982;31;20079;-67
2023/01/13 10:21:17;;;;;;;9.23;2.45;;;19.70;60.40;;;;;;4525951;31;20138;-68
2023/01/13 10:24:06;;;;;;;6.50;2.33;;;19.70;60.40;;;;;;4514848;31;20166;-67
2023/01/13 10:26:53;;;;;;;10.45;2.42;;;19.80;60.40;;;;;;4504941;31;20212;-67
2023/01/13 10:29:24;;;;;;;5.65;1.80;;;19.70;60.30;;;;;;4526495;31;20147;-67
2023/01/13 10:31:52;;;;;;;7.93;2.17;;;19.70;60.40;;;;;;4524597;31;20136;-65
2023/01/13 10:34:19;;;;;;;7.78;2.28;;;19.70;60.40;;;;;;4522907;31;20136;-66
2023/01/13 10:37:05;;;;;;;9.30;2.10;;;19.70;60.50;;;;;;4525954;31;20159;-67
2023/01/13 10:39:40;;;;;;;7.30;2.50;;;19.70;60.60;;;;;;4524614;31;20473;-68
2023/01/13 10:42:18;;;;;;;7.47;2.75;;;19.70;60.60;;;;;;4514579;31;20704;-66
2023/01/13 10:44:58;;;;;;;7.70;2.22;;;19.70;60.70;;;;;;4523198;31;20601;-68
2023/01/13 10:47:28;;;;;;;7.95;2.38;;;19.70;60.80;;;;;;4515299;31;20543;-67
2023/01/13 10:50:25;;;;;;;8.32;2.22;;;19.70;60.70;;;;;;4514900;31;20239;-66
2023/01/13 10:53:18;;;;;;;9.82;2.67;;;19.70;60.80;;;;;;4512530;31;20146;-68
2023/01/13 10:55:59;;;;;;;6.93;2.42;;;19.70;60.80;;;;;;4519836;31;20285;-67
2023/01/13 10:58:25;;;;;;;7.03;2.30;;;19.70;60.80;;;;;;4526610;31;20135;-68
2023/01/13 11:01:04;;;;;;;8.07;2.08;;;19.70;61.00;;;;;;4525841;31;20595;-68
2023/01/13 11:03:40;;;;;;;8.38;2.40;;;19.70;61.00;;;;;;4518531;31;20292;-68
2023/01/13 11:06:08;;;;;;;8.27;2.50;;;19.70;61.00;;;;;;4516662;31;20861;-68
2023/01/13 11:08:45;;;;;;;6.05;2.03;;;19.70;61.00;;;;;;4517744;31;20139;-67
2023/01/13 11:11:36;;;;;;;8.60;2.63;;;19.70;61.00;;;;;;4524810;31;20104;-67
2023/01/13 11:14:35;;;;;;;6.05;1.90;;;19.70;61.10;;;;;;4528869;31;20536;-67
2023/01/13 11:17:26;;;;;;;8.20;2.45;;;19.70;61.10;;;;;;4530599;31;20136;-67
2023/01/13 11:20:10;;;;;;;5.68;1.90;;;19.70;61.10;;;;;;4529776;31;20095;-67
2023/01/13 11:22:43;;;;;;;;;;;19.70;61.20;;;;;;4529147;31;20143;-67
2023/01/13 11:25:17;;;;;;;8.25;2.35;;;19.70;61.20;;;;;;4531411;31;20021;-67
2023/01/13 11:27:46;;;;;;;5.63;1.80;;;19.70;61.20;;;;;;4528951;31;20124;-67
2023/01/13 11:30:28;;;;;;;7.50;2.13;;;19.70;61.10;;;;;;4529402;31;20684;-67
2023/01/13 11:32:54;;;;;;;6.65;2.00;;;19.70;61.10;;;;;;4531099;31;20120;-67
2023/01/13 11:35:21;;;;;;;7.47;2.08;;;19.70;61.10;;;;;;4529794;31;20200;-67
2023/01/13 11:37:52;;;;;;;7.57;2.25;;;19.70;61.10;;;;;;4529363;31;20138;-67
2023/01/13 11:40:27;;;;;;;9.05;2.47;;;19.70;61.10;;;;;;4526205;31;20175;-68
2023/01/13 11:43:07;;;;;;;7.25;2.33;;;19.70;61.00;;;;;;4516207;31;20148;-67
2023/01/13 11:45:54;;;;;;;6.63;2.22;;;19.70;61.10;;;;;;4529614;31;20091;-66
2023/01/13 11:48:25;;;;;;;8.02;2.15;;;19.70;61.10;;;;;;4527400;31;20271;-67
2023/01/13 11:51:13;;;;;;;8.20;2.17;;;19.70;61.10;;;;;;4517391;31;20165;-67
2023/01/13 11:53:45;;;;;;;6.35;2.13;;;19.70;61.10;;;;;;4525920;31;20624;-66
2023/01/13 11:56:35;;;;;;;6.65;2.40;;;19.70;61.10;;;;;;4529132;31;20138;-67
2023/01/13 11:59:04;;;;;;;7.90;2.45;;;19.70;61.00;;;;;;4529616;31;20658;-66
2023/01/13 12:01:51;;;;;;;7.43;2.58;;;19.70;61.10;;;;;;4521281;31;20282;-66
2023/01/13 12:04:23;;;;;;;5.65;2.00;;;19.60;61.10;;;;;;4479763;31;20570;-66
2023/01/13 12:07:18;;;;;;;7.97;2.13;;;19.60;61.30;;;;;;4528349;31;20206;-66
2023/01/13 12:09:59;;;;;;;11.88;2.92;;;19.50;61.10;;;;;;4528828;31;20265;-66
2023/01/13 12:12:32;;;;;;;6.78;2.28;;;19.50;61.30;;;;;;4530552;31;20250;-66
2023/01/13 12:15:18;;;;;;;7.82;2.70;;;19.50;61.30;;;;;;4528896;31;20576;-66
2023/01/13 12:18:05;;;;;;;7.78;2.38;;;19.50;61.30;;;;;;4527423;31;20164;-65
2023/01/13 12:21:14;;;;;;;6.43;1.80;;;19.50;61.30;;;;;;4517475;31;20222;-66
2023/01/13 12:24:04;;;;;;;7.10;2.08;;;19.60;61.30;;;;;;4527058;31;20151;-66
2023/01/13 12:26:36;;;;;;;7.90;2.10;;;19.60;61.10;;;;;;4529069;31;20185;-66
2023/01/13 12:29:13;;;;;;;7.15;2.30;;;19.70;61.00;;;;;;4530456;31;20135;-66
2023/01/13 12:31:41;;;;;;;11.13;2.28;;;19.80;61.00;;;;;;4528434;31;20120;-66
2023/01/13 12:34:07;;;;;;;6.10;2.05;;;19.80;60.90;;;;;;4526968;31;20306;-66
2023/01/13 12:36:52;;;;;;;7.70;2.30;;;19.80;60.90;;;;;;4528868;31;20108;-66
2023/01/13 12:39:25;;;;;;;6.53;2.13;;;19.80;60.80;;;;;;4515101;31;20124;-66
2023/01/13 12:45:11;;;;;;;8.02;2.25;;;19.90;60.80;;;;;;4484257;31;20148;-65
2023/01/13 12:47:45;;;;;;;8.48;2.40;;;19.80;60.90;;;;;;4528386;31;20647;-65
2023/01/13 12:50:25;;;;;;;8.80;2.45;;;19.80;61.00;;;;;;4517742;31;20148;-65
2023/01/13 12:53:31;;;;;;;7.03;2.50;;;19.90;61.10;;;;;;4526364;31;20123;-66
2023/01/13 12:56:21;;;;;;;6.57;2.17;;;19.90;61.00;;;;;;4490873;31;20123;-66
2023/01/13 12:58:47;;;;;;;8.25;2.20;;;19.90;61.10;;;;;;4530071;31;20136;-66
2023/01/13 13:01:14;;;;;;;4.88;1.60;;;19.90;61.10;;;;;;4528438;31;20131;-66
2023/01/13 13:04:01;;;;;;;8.07;2.00;;;19.90;61.10;;;;;;4514284;31;20140;-66
2023/01/13 13:06:29;;;;;;;10.20;2.15;;;19.90;61.10;;;;;;4524671;31;20142;-66
2023/01/13 13:09:05;;;;;;;6.00;1.88;;;19.90;61.10;;;;;;4512834;31;20277;-66
2023/01/13 13:14:36;;;;;;;8.23;2.33;;;19.90;61.10;;;;;;4479485;31;20203;-65
2023/01/13 13:17:24;;;;;;;10.73;2.67;;;19.90;61.30;;;;;;4522474;31;20150;-67
2023/01/13 13:19:50;;;;;;;7.60;2.10;;;19.90;61.50;;;;;;4520867;31;20180;-66
2023/01/13 13:22:35;;;;;;;7.18;2.28;;;19.90;61.60;;;;;;4520422;31;20139;-67
2023/01/13 13:25:00;;;;;;;6.85;2.20;;;19.90;61.70;;;;;;4511817;31;20209;-67
2023/01/13 13:27:44;;;;;;;13.98;2.95;;;19.90;61.70;;;;;;4522279;31;20160;-66
2023/01/13 13:30:10;;;;;;;10.20;2.35;;;19.90;61.80;;;;;;4515548;31;20135;-66
2023/01/13 13:32:51;;;;;;;8.90;2.35;;;19.90;61.80;;;;;;4528095;31;20123;-66
2023/01/13 13:35:42;;;;;;;8.77;2.25;;;19.90;61.90;;;;;;4526354;31;20141;-66
2023/01/13 13:46:48;;;;;;;10.85;2.25;;;19.90;61.90;;;;;;4529771;31;20476;-67
2023/01/13 13:49:16;;;;;;;6.35;2.30;;;19.90;62.00;;;;;;4527751;31;20132;-67
2023/01/13 13:51:50;;;;;;;7.53;2.20;;;19.90;62.00;;;;;;4527264;31;20142;-67
2023/01/13 13:54:18;;;;;;;;;;;19.90;62.00;;;;;;4515651;31;20658;-66
2023/01/13 13:56:45;;;;;;;6.45;2.03;;;19.90;62.10;;;;;;4525716;31;20154;-67
2023/01/13 13:59:15;;;;;;;8.05;2.38;;;19.90;63.00;;;;;;4528929;31;20638;-67
2023/01/13 14:01:44;;;;;;;6.82;1.83;;;19.90;62.20;;;;;;4527281;31;20590;-67
2023/01/13 14:04:19;;;;;;;7.40;1.92;;;19.90;62.10;;;;;;4529257;31;20132;-66
2023/01/13 14:06:49;;;;;;;6.80;2.25;;;19.90;62.10;;;;;;4527452;31;20099;-65
2023/01/13 14:09:18;;;;;;;6.20;2.05;;;19.90;62.10;;;;;;4528173;31;20128;-66
2023/01/13 14:11:54;;;;;;;7.85;1.73;;;19.90;62.00;;;;;;4513278;31;20209;-66
2023/01/13 14:14:20;;;;;;;7.78;1.95;;;19.90;62.00;;;;;;4520224;31;20139;-67